Latest Weather Observations for Geelong Racecourse

IDV60901

Issued at 7:41 pm EDT Monday 25 October 2021 (issued every 10 minutes, with the page automatically refreshed every 10 minutes)

About weather observations | Map of Melbourne area stations | Latest observations for Melbourne area | Other Formats
Station Details ID: 087184 Name: GEELONG RACECOURSE Lat: -38.17 Lon: 144.38 Height: 12.9 m
Data from the previous 72 hours. | See also: Recent months at Geelong Racecourse
Date/Time
EDT
Temp
°C
App
Temp
°C
Dew
Point
°C
Rel
Hum
%
Delta-T
°C
Wind Press
QNH
hPa
Press
MSL
hPa
Rain since
9am
mm
Dir  Spd
km/h
Gust
km/h
Spd
kts
Gust
kts
25/07:30pm 11.9 8.6 6.2 68 2.7 S 13 19 7 10 1021.1 1021.1 0.0
25/07:00pm 12.1 8.4 6.4 68 2.7 S 15 22 8 12 1021.0 1021.0 0.0
25/06:30pm 12.5 8.4 6.3 66 2.9 S 17 24 9 13 1020.9 1020.9 0.0
25/06:00pm 12.7 7.6 6.1 64 3.1 S 22 32 12 17 1020.7 1020.7 0.0
25/05:30pm 12.5 7.5 6.5 67 2.9 S 22 30 12 16 1020.9 1020.9 0.0
25/05:00pm 13.3 7.7 7.1 66 3.0 SSW 26 33 14 18 1020.9 1020.9 0.0
25/04:30pm 14.1 9.3 7.2 63 3.4 S 22 37 12 20 1020.7 1020.7 0.0
25/04:00pm 14.0 8.7 6.8 62 3.5 S 24 33 13 18 1020.8 1020.8 0.0
25/03:30pm 14.3 9.3 6.6 60 3.7 S 22 32 12 17 1020.9 1020.9 0.0
25/03:00pm 14.3 9.2 6.2 58 3.9 S 22 33 12 18 1021.3 1021.3 0.0
25/02:30pm 13.5 7.8 6.6 63 3.3 S 26 33 14 18 1021.5 1021.5 0.0
25/02:00pm 14.0 8.9 6.1 59 3.8 SSW 22 30 12 16 1021.6 1021.6 0.0
25/01:30pm 13.5 8.2 6.6 63 3.3 S 24 32 13 17 1021.8 1021.8 0.0
25/01:00pm 13.4 8.3 6.0 61 3.5 S 22 32 12 17 1021.8 1021.8 0.0
25/12:30pm 14.1 9.2 6.7 61 3.6 S 22 37 12 20 1021.9 1021.9 0.0
25/12:00pm 13.7 8.6 5.8 59 3.7 S 22 32 12 17 1022.1 1022.1 0.0
25/11:30am 12.6 9.1 7.1 69 2.7 S 15 24 8 13 1022.3 1022.3 0.0
25/11:00am 11.5 7.2 7.0 74 2.1 S 19 32 10 17 1022.5 1022.5 0.0
25/10:30am 12.9 7.7 5.6 61 3.4 SSW 22 37 12 20 1022.4 1022.4 0.0
25/10:00am 12.3 7.1 5.7 64 3.1 SSW 22 32 12 17 1022.3 1022.3 0.0
25/09:30am 12.3 7.4 5.2 62 3.3 SSW 20 28 11 15 1022.2 1022.2 0.0
25/09:00am 11.9 7.6 5.3 64 3.0 SSW 17 30 9 16 1022.2 1022.2 0.2
25/08:30am 11.5 7.5 4.7 63 3.1 SW 15 20 8 11 1022.1 1022.1 0.2
25/08:00am 11.4 6.8 3.7 59 3.4 SSW 17 20 9 11 1021.7 1021.7 0.2
25/07:30am 10.9 9.2 3.9 62 3.1 SW 2 15 1 8 1021.6 1021.6 0.2
25/07:00am 10.7 7.6 3.7 62 3.1 SW 9 15 5 8 1021.4 1021.4 0.2
25/06:30am 10.7 6.7 2.8 58 3.4 SW 13 19 7 10 1021.3 1021.3 0.2
25/06:00am 10.8 5.8 3.8 62 3.1 SSW 19 26 10 14 1021.2 1021.2 0.2
25/05:30am 10.7 6.9 4.0 63 3.0 SSW 13 19 7 10 1021.0 1021.0 0.2
25/05:00am 10.7 6.7 2.8 58 3.4 SW 13 19 7 10 1020.9 1020.9 0.2
25/04:30am 10.9 7.1 3.7 61 3.2 SSW 13 22 7 12 1020.9 1020.9 0.2
25/04:00am 11.0 6.7 3.3 59 3.4 SSW 15 20 8 11 1020.9 1020.9 0.2
25/03:30am 10.9 6.7 3.7 61 3.2 SW 15 24 8 13 1021.1 1021.1 0.2
25/03:00am 10.9 5.9 3.7 61 3.2 S 19 28 10 15 1021.4 1021.4 0.2
25/02:30am 11.0 6.1 4.2 63 3.0 SSW 19 26 10 14 1021.4 1021.4 0.2
25/02:00am 10.9 6.9 4.8 66 2.7 SSW 15 19 8 10 1021.6 1021.6 0.2
25/01:30am 10.8 7.1 4.5 65 2.8 SSW 13 19 7 10 1022.0 1022.0 0.2
25/01:00am 11.1 6.4 3.4 59 3.4 SW 17 24 9 13 1022.3 1022.3 0.2
25/12:30am 11.1 6.8 3.2 58 3.5 SW 15 32 8 17 1022.4 1022.4 0.2
25/12:00am 10.3 8.9 5.7 73 2.1 WSW 2 13 1 7 1022.5 1022.5 0.2
 
Date/Time
EDT
Temp
°C
App
Temp
°C
Dew
Point
°C
Rel
Hum
%
Delta-T
°C
Wind Press
QNH
hPa
Press
MSL
hPa
Rain since
9am
mm
Dir  Spd
km/h
Gust
km/h
Spd
kts
Gust
kts
24/11:30pm 10.3 7.3 5.9 74 2.0 WSW 11 17 6 9 1022.6 1022.6 0.2
24/11:00pm 10.5 7.4 5.7 72 2.2 WSW 11 19 6 10 1022.7 1022.7 0.2
24/10:30pm 10.5 7.4 5.5 71 2.3 WSW 11 19 6 10 1022.9 1022.9 0.2
24/10:00pm 10.7 6.8 5.3 69 2.5 WSW 15 19 8 10 1023.1 1023.1 0.2
24/09:30pm 10.9 7.3 5.2 68 2.6 WSW 13 19 7 10 1023.2 1023.2 0.2
24/09:00pm 11.0 7.4 5.1 67 2.7 WSW 13 19 7 10 1023.2 1023.2 0.2
24/08:30pm 11.1 7.1 5.0 66 2.8 SW 15 22 8 12 1023.1 1023.1 0.2
24/08:00pm 11.1 6.7 4.6 64 2.9 SW 17 28 9 15 1022.9 1022.9 0.2
24/07:30pm 11.5 6.6 4.9 64 3.0 SSW 20 28 11 15 1022.8 1022.8 0.2
24/07:00pm 12.1 6.8 4.8 61 3.3 SW 22 32 12 17 1022.6 1022.6 0.2
24/06:30pm 12.4 7.6 5.6 63 3.2 SSW 20 33 11 18 1022.6 1022.6 0.2
24/06:00pm 12.7 6.0 5.8 63 3.2 SSW 30 43 16 23 1022.4 1022.4 0.2
24/05:30pm 13.1 6.7 5.0 58 3.7 SSW 28 37 15 20 1022.2 1022.2 0.2
24/05:00pm 13.8 6.7 5.7 58 3.8 SSW 32 41 17 22 1022.1 1022.1 0.2
24/04:37pm 13.7 7.2 6.3 61 3.5 SSW 30 48 16 26 1022.0 1022.0 0.2
24/04:30pm 13.4 6.2 5.8 60 3.6 SSW 33 48 18 26 1022.1 1022.1 0.2
24/04:12pm 14.0 6.9 6.6 61 3.6 SSW 33 52 18 28 1022.3 1022.3 0.2
24/04:00pm 14.6 8.1 6.4 58 3.9 SSW 30 43 16 23 1022.2 1022.2 0.2
24/03:30pm 14.6 7.4 4.9 52 4.5 S 32 48 17 26 1022.2 1022.2 0.2
24/03:00pm 15.0 8.0 5.8 54 4.4 SSW 32 48 17 26 1022.4 1022.4 0.2
24/02:30pm 14.9 7.6 4.3 49 4.9 SW 32 44 17 24 1022.5 1022.5 0.2
24/02:00pm 14.8 8.8 5.3 53 4.5 SSW 26 37 14 20 1022.5 1022.5 0.2
24/01:30pm 14.7 8.8 4.1 49 4.9 SSW 24 39 13 21 1022.8 1022.8 0.2
24/01:00pm 14.1 8.5 5.2 55 4.2 SSW 24 32 13 17 1022.9 1022.9 0.2
24/12:30pm 15.1 9.9 7.2 59 3.9 SSW 24 32 13 17 1023.0 1023.0 0.2
24/12:00pm 13.5 7.1 5.2 57 3.9 SW 28 37 15 20 1023.2 1023.2 0.2
24/11:30am 12.6 8.3 7.7 72 2.4 SSW 20 30 11 16 1023.4 1023.4 0.2
24/11:00am 11.1 3.8 7.4 78 1.8 SSW 35 52 19 28 1023.5 1023.5 0.2
24/10:30am 12.6 7.4 7.1 69 2.7 SSW 24 37 13 20 1023.1 1023.1 0.0
24/10:00am 12.6 6.6 5.5 62 3.3 SSW 26 41 14 22 1023.1 1023.1 0.0
24/09:30am 12.1 8.2 8.6 79 1.7 WSW 19 24 10 13 1023.1 1023.1 0.0
24/09:00am 12.2 8.7 7.3 72 2.4 WSW 15 20 8 11 1022.9 1022.9 2.8
24/08:30am 12.1 9.0 7.2 72 2.4 WSW 13 19 7 10 1022.7 1022.7 2.8
24/08:00am 11.3 7.7 6.8 74 2.1 WSW 15 20 8 11 1022.3 1022.3 2.8
24/07:30am 10.4 7.1 6.5 77 1.8 WSW 13 22 7 12 1022.0 1022.0 2.8
24/07:00am 9.7 6.0 6.2 79 1.6 WSW 15 20 8 11 1021.8 1021.8 2.8
24/06:30am 9.1 7.5 6.4 83 1.2 SW 4 9 2 5 1021.6 1021.6 2.8
24/06:00am 10.0 5.8 5.8 75 1.9 WSW 17 24 9 13 1021.3 1021.3 2.8
24/05:30am 9.4 6.0 6.1 80 1.5 WSW 13 17 7 9 1021.0 1021.0 2.8
24/05:00am 9.1 6.2 6.5 84 1.2 W 11 17 6 9 1021.0 1021.0 2.8
24/04:30am 8.8 5.4 6.1 83 1.2 WSW 13 17 7 9 1020.9 1020.9 2.8
24/04:00am 9.1 6.2 6.4 83 1.2 WSW 11 17 6 9 1020.9 1020.9 2.8
24/03:30am 9.1 6.6 6.4 83 1.2 W 9 15 5 8 1020.9 1020.9 2.8
24/03:00am 9.2 6.7 6.6 84 1.2 W 9 13 5 7 1021.1 1021.1 2.8
24/02:30am 8.9 6.3 6.3 84 1.2 W 9 13 5 7 1021.1 1021.1 2.8
24/02:00am 8.9 6.3 6.3 84 1.2 W 9 11 5 6 1021.2 1021.2 2.8
24/01:30am 9.6 7.2 6.9 83 1.3 W 9 15 5 8 1021.4 1021.4 2.8
24/01:00am 9.8 7.0 7.1 83 1.3 W 11 15 6 8 1021.4 1021.4 2.8
24/12:30am 9.5 6.6 6.6 82 1.4 W 11 13 6 7 1021.5 1021.5 2.8
24/12:00am 10.2 7.9 7.3 82 1.4 W 9 15 5 8 1021.4 1021.4 2.8
 
Date/Time
EDT
Temp
°C
App
Temp
°C
Dew
Point
°C
Rel
Hum
%
Delta-T
°C
Wind Press
QNH
hPa
Press
MSL
hPa
Rain since
9am
mm
Dir  Spd
km/h
Gust
km/h
Spd
kts
Gust
kts
23/11:30pm 9.5 7.3 6.4 81 1.4 W 7 11 4 6 1021.3 1021.3 2.8
23/11:00pm 9.9 7.5 6.8 81 1.4 W 9 11 5 6 1021.3 1021.3 2.8
23/10:30pm 10.8 8.1 7.3 79 1.7 WSW 11 17 6 9 1021.3 1021.3 2.8
23/10:00pm 11.3 8.8 8.2 81 1.5 WSW 11 17 6 9 1021.1 1021.1 2.8
23/09:30pm 11.1 8.6 8.3 83 1.4 WSW 11 17 6 9 1020.9 1020.9 2.8
23/09:00pm 11.8 9.2 7.7 76 2.0 SW 11 15 6 8 1020.4 1020.4 2.2
23/08:30pm 11.8 9.6 7.7 76 2.0 WSW 9 11 5 6 1020.0 1020.0 2.2
23/08:00pm 11.9 8.4 7.4 74 2.2 SW 15 20 8 11 1019.6 1019.6 2.2
23/07:30pm 12.2 7.7 6.9 70 2.5 SW 20 30 11 16 1019.1 1019.1 2.2
23/07:00pm 12.8 7.7 7.7 71 2.5 SSW 24 33 13 18 1018.7 1018.7 2.2
23/06:30pm 13.2 7.2 7.2 67 2.9 SSW 28 44 15 24 1018.1 1018.1 2.2
23/06:00pm 12.8 6.6 7.7 71 2.5 SSW 30 39 16 21 1017.8 1017.8 2.2
23/05:30pm 13.2 8.0 8.7 74 2.3 SSW 26 39 14 21 1017.5 1017.5 2.2
23/05:00pm 12.9 8.7 9.9 82 1.5 SSW 22 32 12 17 1017.3 1017.3 2.2
23/04:30pm 12.9 9.3 10.4 85 1.3 SSW 20 30 11 16 1017.1 1017.1 2.2
23/04:00pm 12.4 8.9 10.8 90 0.8 SSW 20 28 11 15 1017.0 1017.0 2.2
23/03:30pm 13.6 9.1 10.0 79 1.9 SSW 24 33 13 18 1016.7 1016.7 2.0
23/03:00pm 13.8 10.9 11.1 84 1.4 SSW 17 30 9 16 1016.6 1016.6 2.0
23/02:30pm 12.9 9.7 11.1 89 0.9 SSW 19 24 10 13 1016.8 1016.8 2.0
23/02:00pm 12.6 10.0 10.8 89 0.9 SW 15 20 8 11 1016.7 1016.7 0.8
23/01:30pm 13.4 9.8 9.8 79 1.8 S 19 26 10 14 1016.3 1016.3 0.2
23/01:00pm 14.8 10.9 9.4 70 2.8 S 20 30 11 16 1016.2 1016.2 0.2
23/12:30pm 13.8 10.1 9.5 75 2.2 S 19 24 10 13 1016.3 1016.3 0.2
23/12:00pm 13.2 9.5 9.6 79 1.8 SSW 19 24 10 13 1016.4 1016.4 0.2
23/11:30am 14.3 10.7 9.9 75 2.3 SSW 19 24 10 13 1015.9 1015.9 0.0
23/11:00am 13.7 10.5 9.9 78 2.0 SSW 17 20 9 11 1015.9 1015.9 0.0
23/10:30am 13.6 9.7 9.5 76 2.1 SSW 20 28 11 15 1015.9 1015.9 0.0
23/10:00am 13.6 10.3 9.6 77 2.0 SSW 17 24 9 13 1015.9 1015.9 0.0
23/09:30am 13.7 10.3 9.2 74 2.3 SSW 17 26 9 14 1015.7 1015.7 0.0
23/09:00am 13.4 12.2 11.6 89 1.0 SW 9 13 5 7 1015.4 1015.4 26.8
23/08:30am 12.7 11.1 11.6 93 0.6 SW 11 17 6 9 1015.2 1015.2 26.8
23/08:00am 12.7 11.8 11.4 92 0.7 WSW 7 13 4 7 1015.0 1015.0 26.8
23/07:30am 12.6 11.7 11.5 93 0.6 WSW 7 9 4 5 1014.6 1014.6 26.8
23/07:00am 12.4 11.6 11.6 95 0.4 WSW 7 9 4 5 1014.4 1014.4 26.8
23/06:30am 12.0 11.1 11.2 95 0.4 WSW 7 9 4 5 1014.3 1014.3 26.8
23/06:00am 11.9 11.2 11.3 96 0.3 SW 6 7 3 4 1014.1 1014.1 26.8
23/05:30am 11.4 10.5 10.6 95 0.4 WSW 6 7 3 4 1014.2 1014.2 26.8
23/05:00am 11.4 9.5 10.5 94 0.5 SW 11 13 6 7 1014.0 1014.0 26.8
23/04:30am 11.9 10.1 10.8 93 0.6 SSW 11 15 6 8 1013.8 1013.8 26.8
23/04:00am 12.6 10.7 11.7 94 0.5 SSW 13 17 7 9 1013.7 1013.7 26.8
23/03:30am 12.9 11.1 12.0 94 0.5 SSW 13 19 7 10 1013.8 1013.8 26.8
23/03:00am 12.9 12.2 12.1 95 0.4 SSW 7 11 4 6 1014.1 1014.1 26.8
23/02:30am 12.8 11.0 12.2 96 0.3 SSW 13 19 7 10 1013.7 1013.7 26.6
23/02:00am 12.7 10.5 12.1 96 0.3 SSW 15 22 8 12 1013.7 1013.7 26.0
23/01:30am 12.7 11.6 12.1 96 0.3 SW 9 15 5 8 1014.2 1014.2 25.0
23/01:00am 12.6 10.8 12.0 96 0.3 SSW 13 22 7 12 1014.3 1014.3 24.8
23/12:30am 12.7 10.5 12.1 96 0.3 SSW 15 20 8 11 1014.4 1014.4 22.6
23/12:00am 12.9 10.8 12.3 96 0.3 SSW 15 22 8 12 1014.3 1014.3 20.4
 
Date/Time
EDT
Temp
°C
App
Temp
°C
Dew
Point
°C
Rel
Hum
%
Delta-T
°C
Wind Press
QNH
hPa
Press
MSL
hPa
Rain since
9am
mm
Dir  Spd
km/h
Gust
km/h
Spd
kts
Gust
kts
22/11:30pm 13.1 10.7 12.5 96 0.3 SW 17 26 9 14 1014.2 1014.2 13.8
22/11:00pm 13.3 10.5 12.5 95 0.4 SSW 19 28 10 15 1014.1 1014.1 12.0
22/10:30pm 13.4 11.0 12.8 96 0.3 SSW 17 22 9 12 1014.2 1014.2 12.0
22/10:00pm 13.5 11.5 12.7 95 0.4 SSW 15 26 8 14 1014.1 1014.1 12.0
22/09:30pm 13.8 11.9 12.9 94 0.5 WSW 15 22 8 12 1014.8 1014.8 10.8
22/09:00pm 13.8 10.6 13.0 95 0.4 SW 22 35 12 19 1014.0 1014.0 9.0
22/08:30pm 13.5 11.2 12.9 96 0.3 S 17 26 9 14 1012.5 1012.5 9.0
22/08:00pm 13.6 10.9 13.0 96 0.3 S 19 26 10 14 1012.9 1012.9 9.0

Latest Capital City Observations: Canberra | Sydney | Melbourne | Brisbane | Adelaide | Perth | Hobart | Darwin

Other formats

Comma delimited format used in spreadsheet applications
http://www.bom.gov.au/fwo/IDV60901/IDV60901.94857.axf

JavaScript Object Notation format (JSON) in row-major order
http://www.bom.gov.au/fwo/IDV60901/IDV60901.94857.json

Data quality

Most of these data are generated automatically and are frequently updated. Quality checks on data are not normally performed. It is possible for incorrect values to appear. Refer to information at About Latest Weather Observations and please check the disclaimer before using these data.